sensor_id;sensor_type;location;lat;lon;timestamp;P1;durP1;ratioP1;P2;durP2;ratioP2
34902;SDS011;21114;44.840;0.214;2023-03-05T00:01:02;40.05;;;24.88;;
34902;SDS011;21114;44.840;0.214;2023-03-05T00:04:17;38.00;;;25.88;;
34902;SDS011;21114;44.840;0.214;2023-03-05T00:06:43;36.40;;;25.40;;
34902;SDS011;21114;44.840;0.214;2023-03-05T00:09:09;33.15;;;21.35;;
34902;SDS011;21114;44.840;0.214;2023-03-05T00:11:35;34.75;;;23.90;;
34902;SDS011;21114;44.840;0.214;2023-03-05T00:14:02;38.13;;;25.45;;
34902;SDS011;21114;44.840;0.214;2023-03-05T00:17:17;36.50;;;25.05;;
34902;SDS011;21114;44.840;0.214;2023-03-05T00:19:43;36.78;;;23.00;;
34902;SDS011;21114;44.840;0.214;2023-03-05T00:22:09;36.97;;;25.27;;
34902;SDS011;21114;44.840;0.214;2023-03-05T00:24:35;35.08;;;22.75;;
34902;SDS011;21114;44.840;0.214;2023-03-05T00:27:01;35.75;;;23.65;;
34902;SDS011;21114;44.840;0.214;2023-03-05T00:29:28;35.95;;;25.05;;
34902;SDS011;21114;44.840;0.214;2023-03-05T00:32:18;37.00;;;23.13;;
34902;SDS011;21114;44.840;0.214;2023-03-05T00:34:44;42.67;;;26.17;;
34902;SDS011;21114;44.840;0.214;2023-03-05T00:37:10;35.78;;;23.30;;
34902;SDS011;21114;44.840;0.214;2023-03-05T00:39:36;39.85;;;26.17;;
34902;SDS011;21114;44.840;0.214;2023-03-05T00:42:03;37.80;;;23.60;;
34902;SDS011;21114;44.840;0.214;2023-03-05T00:44:29;36.78;;;25.58;;
34902;SDS011;21114;44.840;0.214;2023-03-05T00:46:55;40.75;;;25.63;;
34902;SDS011;21114;44.840;0.214;2023-03-05T00:49:21;35.40;;;22.80;;
34902;SDS011;21114;44.840;0.214;2023-03-05T00:51:47;35.50;;;23.95;;
34902;SDS011;21114;44.840;0.214;2023-03-05T00:54:13;42.80;;;26.38;;
34902;SDS011;21114;44.840;0.214;2023-03-05T00:56:39;44.60;;;26.55;;
34902;SDS011;21114;44.840;0.214;2023-03-05T00:59:05;38.67;;;26.88;;
34902;SDS011;21114;44.840;0.214;2023-03-05T01:01:31;40.75;;;27.08;;
34902;SDS011;21114;44.840;0.214;2023-03-05T01:03:57;42.63;;;27.02;;
34902;SDS011;21114;44.840;0.214;2023-03-05T01:06:25;43.45;;;26.88;;
34902;SDS011;21114;44.840;0.214;2023-03-05T01:08:51;39.25;;;25.17;;
34902;SDS011;21114;44.840;0.214;2023-03-05T01:11:17;33.88;;;23.55;;
34902;SDS011;21114;44.840;0.214;2023-03-05T01:13:43;39.38;;;26.00;;
34902;SDS011;21114;44.840;0.214;2023-03-05T01:16:09;40.00;;;23.83;;
34902;SDS011;21114;44.840;0.214;2023-03-05T01:18:36;38.15;;;24.58;;
34902;SDS011;21114;44.840;0.214;2023-03-05T01:21:50;32.95;;;22.85;;
34902;SDS011;21114;44.840;0.214;2023-03-05T01:24:16;34.08;;;22.83;;
34902;SDS011;21114;44.840;0.214;2023-03-05T01:26:42;39.00;;;24.20;;
34902;SDS011;21114;44.840;0.214;2023-03-05T01:29:08;38.15;;;24.80;;
34902;SDS011;21114;44.840;0.214;2023-03-05T01:31:34;42.40;;;27.17;;
34902;SDS011;21114;44.840;0.214;2023-03-05T01:34:00;38.38;;;24.23;;
34902;SDS011;21114;44.840;0.214;2023-03-05T01:36:27;36.85;;;23.23;;
34902;SDS011;21114;44.840;0.214;2023-03-05T01:38:53;37.95;;;23.60;;
34902;SDS011;21114;44.840;0.214;2023-03-05T01:41:19;37.80;;;25.05;;
34902;SDS011;21114;44.840;0.214;2023-03-05T01:43:45;34.90;;;22.77;;
34902;SDS011;21114;44.840;0.214;2023-03-05T01:47:00;37.95;;;22.90;;
34902;SDS011;21114;44.840;0.214;2023-03-05T01:49:31;40.58;;;25.67;;
34902;SDS011;21114;44.840;0.214;2023-03-05T01:52:19;40.55;;;25.15;;
34902;SDS011;21114;44.840;0.214;2023-03-05T01:55:35;36.30;;;22.92;;
34902;SDS011;21114;44.840;0.214;2023-03-05T01:58:02;41.05;;;25.10;;
34902;SDS011;21114;44.840;0.214;2023-03-05T02:01:17;36.53;;;23.60;;
34902;SDS011;21114;44.840;0.214;2023-03-05T02:03:44;37.85;;;23.67;;
34902;SDS011;21114;44.840;0.214;2023-03-05T02:06:35;38.60;;;23.25;;
34902;SDS011;21114;44.840;0.214;2023-03-05T02:09:19;41.92;;;25.58;;
34902;SDS011;21114;44.840;0.214;2023-03-05T02:12:34;36.65;;;23.08;;
34902;SDS011;21114;44.840;0.214;2023-03-05T02:15:00;40.60;;;24.58;;
34902;SDS011;21114;44.840;0.214;2023-03-05T02:17:26;40.00;;;24.80;;
34902;SDS011;21114;44.840;0.214;2023-03-05T02:20:44;38.70;;;23.92;;
34902;SDS011;21114;44.840;0.214;2023-03-05T02:23:58;40.53;;;24.23;;
34902;SDS011;21114;44.840;0.214;2023-03-05T02:26:24;42.22;;;27.13;;
34902;SDS011;21114;44.840;0.214;2023-03-05T02:28:52;40.35;;;25.33;;
34902;SDS011;21114;44.840;0.214;2023-03-05T02:32:07;43.10;;;27.00;;
34902;SDS011;21114;44.840;0.214;2023-03-05T02:34:33;45.75;;;27.35;;
34902;SDS011;21114;44.840;0.214;2023-03-05T02:36:59;42.55;;;26.48;;
34902;SDS011;21114;44.840;0.214;2023-03-05T02:39:28;40.35;;;26.58;;
34902;SDS011;21114;44.840;0.214;2023-03-05T02:41:54;44.95;;;29.38;;
34902;SDS011;21114;44.840;0.214;2023-03-05T02:44:20;45.35;;;28.02;;
34902;SDS011;21114;44.840;0.214;2023-03-05T02:46:46;43.28;;;24.98;;
34902;SDS011;21114;44.840;0.214;2023-03-05T02:49:12;43.10;;;25.63;;
34902;SDS011;21114;44.840;0.214;2023-03-05T02:51:38;36.10;;;25.10;;
34902;SDS011;21114;44.840;0.214;2023-03-05T02:54:04;41.55;;;27.52;;
34902;SDS011;21114;44.840;0.214;2023-03-05T02:56:31;46.35;;;26.33;;
34902;SDS011;21114;44.840;0.214;2023-03-05T02:58:57;39.20;;;23.58;;
34902;SDS011;21114;44.840;0.214;2023-03-05T03:01:23;44.60;;;25.95;;
34902;SDS011;21114;44.840;0.214;2023-03-05T03:03:52;39.60;;;25.65;;
34902;SDS011;21114;44.840;0.214;2023-03-05T03:06:18;40.80;;;26.38;;
34902;SDS011;21114;44.840;0.214;2023-03-05T03:08:44;42.60;;;25.65;;
34902;SDS011;21114;44.840;0.214;2023-03-05T03:11:10;42.85;;;26.63;;
34902;SDS011;21114;44.840;0.214;2023-03-05T03:14:25;41.25;;;26.42;;
34902;SDS011;21114;44.840;0.214;2023-03-05T03:16:51;37.92;;;23.52;;
34902;SDS011;21114;44.840;0.214;2023-03-05T03:19:17;43.30;;;25.52;;
34902;SDS011;21114;44.840;0.214;2023-03-05T03:21:43;44.47;;;27.20;;
34902;SDS011;21114;44.840;0.214;2023-03-05T03:24:09;41.72;;;26.23;;
34902;SDS011;21114;44.840;0.214;2023-03-05T03:26:35;43.85;;;27.75;;
34902;SDS011;21114;44.840;0.214;2023-03-05T03:29:02;43.25;;;26.10;;
34902;SDS011;21114;44.840;0.214;2023-03-05T03:31:28;44.55;;;28.45;;
34902;SDS011;21114;44.840;0.214;2023-03-05T03:33:54;45.78;;;28.13;;
34902;SDS011;21114;44.840;0.214;2023-03-05T03:36:20;41.80;;;27.10;;
34902;SDS011;21114;44.840;0.214;2023-03-05T03:38:46;40.83;;;25.92;;
34902;SDS011;21114;44.840;0.214;2023-03-05T03:41:12;41.42;;;27.83;;
34902;SDS011;21114;44.840;0.214;2023-03-05T03:43:38;37.10;;;23.23;;
34902;SDS011;21114;44.840;0.214;2023-03-05T03:46:05;40.70;;;24.85;;
34902;SDS011;21114;44.840;0.214;2023-03-05T03:49:21;42.00;;;25.33;;
34902;SDS011;21114;44.840;0.214;2023-03-05T03:52:26;40.08;;;25.65;;
34902;SDS011;21114;44.840;0.214;2023-03-05T03:54:52;40.28;;;24.27;;
34902;SDS011;21114;44.840;0.214;2023-03-05T03:57:25;40.70;;;26.33;;
34902;SDS011;21114;44.840;0.214;2023-03-05T03:59:51;39.33;;;23.70;;
34902;SDS011;21114;44.840;0.214;2023-03-05T04:02:17;41.88;;;25.40;;
34902;SDS011;21114;44.840;0.214;2023-03-05T04:04:43;38.63;;;24.45;;
34902;SDS011;21114;44.840;0.214;2023-03-05T04:07:09;40.85;;;24.23;;
34902;SDS011;21114;44.840;0.214;2023-03-05T04:09:36;40.33;;;24.38;;
34902;SDS011;21114;44.840;0.214;2023-03-05T04:12:02;40.13;;;26.27;;
34902;SDS011;21114;44.840;0.214;2023-03-05T04:14:28;40.10;;;24.33;;
34902;SDS011;21114;44.840;0.214;2023-03-05T04:16:54;36.88;;;24.90;;
34902;SDS011;21114;44.840;0.214;2023-03-05T04:19:20;43.13;;;25.38;;
34902;SDS011;21114;44.840;0.214;2023-03-05T04:21:46;38.72;;;24.13;;
34902;SDS011;21114;44.840;0.214;2023-03-05T04:24:12;38.38;;;23.83;;
34902;SDS011;21114;44.840;0.214;2023-03-05T04:26:39;39.95;;;24.27;;
34902;SDS011;21114;44.840;0.214;2023-03-05T04:29:05;41.55;;;25.55;;
34902;SDS011;21114;44.840;0.214;2023-03-05T04:31:31;45.78;;;25.45;;
34902;SDS011;21114;44.840;0.214;2023-03-05T04:33:58;40.10;;;25.65;;
34902;SDS011;21114;44.840;0.214;2023-03-05T04:37:12;41.47;;;23.77;;
34902;SDS011;21114;44.840;0.214;2023-03-05T04:39:38;39.70;;;24.27;;
34902;SDS011;21114;44.840;0.214;2023-03-05T04:42:04;40.28;;;25.38;;
34902;SDS011;21114;44.840;0.214;2023-03-05T04:44:30;41.05;;;23.35;;
34902;SDS011;21114;44.840;0.214;2023-03-05T04:46:56;36.28;;;21.23;;
34902;SDS011;21114;44.840;0.214;2023-03-05T04:49:22;42.63;;;23.23;;
34902;SDS011;21114;44.840;0.214;2023-03-05T04:51:48;41.08;;;24.08;;
34902;SDS011;21114;44.840;0.214;2023-03-05T04:54:14;42.55;;;26.98;;
34902;SDS011;21114;44.840;0.214;2023-03-05T04:56:41;45.30;;;26.67;;
34902;SDS011;21114;44.840;0.214;2023-03-05T04:59:07;48.05;;;25.10;;
34902;SDS011;21114;44.840;0.214;2023-03-05T05:01:33;37.47;;;22.83;;
34902;SDS011;21114;44.840;0.214;2023-03-05T05:03:59;38.60;;;24.00;;
34902;SDS011;21114;44.840;0.214;2023-03-05T05:06:25;42.75;;;26.42;;
34902;SDS011;21114;44.840;0.214;2023-03-05T05:08:51;43.28;;;24.65;;
34902;SDS011;21114;44.840;0.214;2023-03-05T05:11:17;43.53;;;25.23;;
34902;SDS011;21114;44.840;0.214;2023-03-05T05:13:44;35.08;;;23.88;;
34902;SDS011;21114;44.840;0.214;2023-03-05T05:16:10;34.55;;;21.60;;
34902;SDS011;21114;44.840;0.214;2023-03-05T05:18:36;40.97;;;23.63;;
34902;SDS011;21114;44.840;0.214;2023-03-05T05:21:05;39.35;;;22.65;;
34902;SDS011;21114;44.840;0.214;2023-03-05T05:24:20;32.83;;;21.48;;
34902;SDS011;21114;44.840;0.214;2023-03-05T05:26:46;35.53;;;21.58;;
34902;SDS011;21114;44.840;0.214;2023-03-05T05:29:12;34.88;;;20.80;;
34902;SDS011;21114;44.840;0.214;2023-03-05T05:31:38;36.38;;;23.88;;
34902;SDS011;21114;44.840;0.214;2023-03-05T05:34:04;36.50;;;22.05;;
34902;SDS011;21114;44.840;0.214;2023-03-05T05:36:30;36.60;;;22.08;;
34902;SDS011;21114;44.840;0.214;2023-03-05T05:38:56;32.17;;;18.85;;
34902;SDS011;21114;44.840;0.214;2023-03-05T05:41:22;38.88;;;23.90;;
34902;SDS011;21114;44.840;0.214;2023-03-05T05:43:48;38.20;;;22.55;;
34902;SDS011;21114;44.840;0.214;2023-03-05T05:46:15;39.55;;;24.48;;
34902;SDS011;21114;44.840;0.214;2023-03-05T05:49:27;25.45;;;14.93;;
34902;SDS011;21114;44.840;0.214;2023-03-05T05:51:53;31.23;;;22.75;;
34902;SDS011;21114;44.840;0.214;2023-03-05T05:54:19;35.65;;;21.15;;
34902;SDS011;21114;44.840;0.214;2023-03-05T05:56:45;39.97;;;24.15;;
34902;SDS011;21114;44.840;0.214;2023-03-05T05:59:11;41.00;;;23.88;;
34902;SDS011;21114;44.840;0.214;2023-03-05T06:01:37;40.33;;;24.63;;
34902;SDS011;21114;44.840;0.214;2023-03-05T06:04:03;39.42;;;25.30;;
34902;SDS011;21114;44.840;0.214;2023-03-05T06:06:29;45.38;;;26.85;;
34902;SDS011;21114;44.840;0.214;2023-03-05T06:08:57;42.08;;;24.85;;
34902;SDS011;21114;44.840;0.214;2023-03-05T06:11:23;39.35;;;25.85;;
34902;SDS011;21114;44.840;0.214;2023-03-05T06:13:49;42.33;;;24.90;;
34902;SDS011;21114;44.840;0.214;2023-03-05T06:16:16;39.00;;;22.92;;
34902;SDS011;21114;44.840;0.214;2023-03-05T06:19:31;41.55;;;24.02;;
34902;SDS011;21114;44.840;0.214;2023-03-05T06:21:57;35.95;;;24.75;;
34902;SDS011;21114;44.840;0.214;2023-03-05T06:24:23;41.38;;;25.48;;
34902;SDS011;21114;44.840;0.214;2023-03-05T06:26:49;42.15;;;24.50;;
34902;SDS011;21114;44.840;0.214;2023-03-05T06:29:15;38.67;;;23.17;;
34902;SDS011;21114;44.840;0.214;2023-03-05T06:31:41;40.67;;;23.70;;
34902;SDS011;21114;44.840;0.214;2023-03-05T06:34:08;38.25;;;24.27;;
34902;SDS011;21114;44.840;0.214;2023-03-05T06:37:23;39.33;;;25.10;;
34902;SDS011;21114;44.840;0.214;2023-03-05T06:39:49;41.55;;;24.17;;
34902;SDS011;21114;44.840;0.214;2023-03-05T06:42:15;34.15;;;21.63;;
34902;SDS011;21114;44.840;0.214;2023-03-05T06:44:43;38.70;;;22.65;;
34902;SDS011;21114;44.840;0.214;2023-03-05T06:47:09;39.35;;;23.65;;
34902;SDS011;21114;44.840;0.214;2023-03-05T06:49:35;41.97;;;24.92;;
34902;SDS011;21114;44.840;0.214;2023-03-05T06:52:02;42.00;;;23.45;;
34902;SDS011;21114;44.840;0.214;2023-03-05T06:55:17;37.67;;;21.67;;
34902;SDS011;21114;44.840;0.214;2023-03-05T06:57:43;39.08;;;21.48;;
34902;SDS011;21114;44.840;0.214;2023-03-05T07:00:10;37.33;;;22.15;;
34902;SDS011;21114;44.840;0.214;2023-03-05T07:03:24;33.72;;;21.73;;
34902;SDS011;21114;44.840;0.214;2023-03-05T07:05:50;34.72;;;21.58;;
34902;SDS011;21114;44.840;0.214;2023-03-05T07:08:16;37.85;;;21.42;;
34902;SDS011;21114;44.840;0.214;2023-03-05T07:10:43;47.20;;;23.52;;
34902;SDS011;21114;44.840;0.214;2023-03-05T07:13:09;43.75;;;26.30;;
34902;SDS011;21114;44.840;0.214;2023-03-05T07:15:37;44.10;;;28.10;;
34902;SDS011;21114;44.840;0.214;2023-03-05T07:18:52;45.20;;;26.98;;
34902;SDS011;21114;44.840;0.214;2023-03-05T07:22:08;40.97;;;26.35;;
34902;SDS011;21114;44.840;0.214;2023-03-05T07:24:34;43.33;;;25.55;;
34902;SDS011;21114;44.840;0.214;2023-03-05T07:27:00;49.83;;;30.00;;
34902;SDS011;21114;44.840;0.214;2023-03-05T07:29:27;42.80;;;26.30;;
34902;SDS011;21114;44.840;0.214;2023-03-05T07:32:42;44.47;;;25.08;;
34902;SDS011;21114;44.840;0.214;2023-03-05T07:35:08;42.13;;;27.42;;
34902;SDS011;21114;44.840;0.214;2023-03-05T07:37:34;37.72;;;24.25;;
34902;SDS011;21114;44.840;0.214;2023-03-05T07:40:00;38.83;;;25.55;;
34902;SDS011;21114;44.840;0.214;2023-03-05T07:42:26;41.33;;;25.20;;
34902;SDS011;21114;44.840;0.214;2023-03-05T07:44:52;40.45;;;23.92;;
34902;SDS011;21114;44.840;0.214;2023-03-05T07:47:18;45.65;;;26.75;;
34902;SDS011;21114;44.840;0.214;2023-03-05T07:49:44;42.97;;;24.58;;
34902;SDS011;21114;44.840;0.214;2023-03-05T07:52:10;41.22;;;25.90;;
34902;SDS011;21114;44.840;0.214;2023-03-05T07:54:37;39.85;;;26.15;;
34902;SDS011;21114;44.840;0.214;2023-03-05T07:57:51;45.22;;;28.33;;
34902;SDS011;21114;44.840;0.214;2023-03-05T08:00:18;47.90;;;25.75;;
34902;SDS011;21114;44.840;0.214;2023-03-05T08:02:44;45.08;;;27.00;;
34902;SDS011;21114;44.840;0.214;2023-03-05T08:05:10;41.13;;;24.88;;
34902;SDS011;21114;44.840;0.214;2023-03-05T08:07:36;44.10;;;25.70;;
34902;SDS011;21114;44.840;0.214;2023-03-05T08:10:03;53.33;;;29.63;;
34902;SDS011;21114;44.840;0.214;2023-03-05T08:12:48;45.20;;;29.77;;
34902;SDS011;21114;44.840;0.214;2023-03-05T08:15:14;50.15;;;26.20;;
34902;SDS011;21114;44.840;0.214;2023-03-05T08:17:41;46.33;;;24.88;;
34902;SDS011;21114;44.840;0.214;2023-03-05T08:20:07;44.63;;;28.33;;
34902;SDS011;21114;44.840;0.214;2023-03-05T08:23:22;45.15;;;25.92;;
34902;SDS011;21114;44.840;0.214;2023-03-05T08:25:48;42.45;;;26.65;;
34902;SDS011;21114;44.840;0.214;2023-03-05T08:28:14;43.25;;;24.42;;
34902;SDS011;21114;44.840;0.214;2023-03-05T08:30:43;41.42;;;25.20;;
34902;SDS011;21114;44.840;0.214;2023-03-05T08:33:09;48.35;;;29.85;;
34902;SDS011;21114;44.840;0.214;2023-03-05T08:35:36;45.33;;;27.95;;
34902;SDS011;21114;44.840;0.214;2023-03-05T08:38:02;38.38;;;26.80;;
34902;SDS011;21114;44.840;0.214;2023-03-05T08:40:28;46.60;;;28.33;;
34902;SDS011;21114;44.840;0.214;2023-03-05T08:42:54;36.75;;;24.52;;
34902;SDS011;21114;44.840;0.214;2023-03-05T08:45:20;42.85;;;26.02;;
34902;SDS011;21114;44.840;0.214;2023-03-05T08:47:47;44.47;;;27.33;;
34902;SDS011;21114;44.840;0.214;2023-03-05T08:50:13;45.10;;;30.15;;
34902;SDS011;21114;44.840;0.214;2023-03-05T08:52:40;47.00;;;26.63;;
34902;SDS011;21114;44.840;0.214;2023-03-05T08:55:06;45.60;;;31.77;;
34902;SDS011;21114;44.840;0.214;2023-03-05T08:57:32;50.63;;;29.85;;
34902;SDS011;21114;44.840;0.214;2023-03-05T08:59:58;47.17;;;30.67;;
34902;SDS011;21114;44.840;0.214;2023-03-05T09:02:24;46.60;;;30.38;;
34902;SDS011;21114;44.840;0.214;2023-03-05T09:04:50;48.60;;;28.98;;
34902;SDS011;21114;44.840;0.214;2023-03-05T09:07:16;46.47;;;29.17;;
34902;SDS011;21114;44.840;0.214;2023-03-05T09:09:42;45.05;;;29.30;;
34902;SDS011;21114;44.840;0.214;2023-03-05T09:12:08;47.78;;;31.88;;
34902;SDS011;21114;44.840;0.214;2023-03-05T09:14:37;44.40;;;29.70;;
34902;SDS011;21114;44.840;0.214;2023-03-05T09:17:03;44.42;;;30.45;;
34902;SDS011;21114;44.840;0.214;2023-03-05T09:19:29;50.85;;;33.50;;
34902;SDS011;21114;44.840;0.214;2023-03-05T09:21:55;50.67;;;30.80;;
34902;SDS011;21114;44.840;0.214;2023-03-05T09:24:21;47.90;;;29.88;;
34902;SDS011;21114;44.840;0.214;2023-03-05T09:26:47;39.88;;;27.95;;
34902;SDS011;21114;44.840;0.214;2023-03-05T09:29:13;44.58;;;27.52;;
34902;SDS011;21114;44.840;0.214;2023-03-05T09:31:39;44.00;;;26.63;;
34902;SDS011;21114;44.840;0.214;2023-03-05T09:34:07;40.22;;;28.83;;
34902;SDS011;21114;44.840;0.214;2023-03-05T09:36:33;43.38;;;28.83;;
34902;SDS011;21114;44.840;0.214;2023-03-05T09:38:59;40.75;;;26.63;;
34902;SDS011;21114;44.840;0.214;2023-03-05T09:46:47;41.50;;;28.45;;
34902;SDS011;21114;44.840;0.214;2023-03-05T09:52:49;42.38;;;28.60;;
34902;SDS011;21114;44.840;0.214;2023-03-05T09:56:09;43.70;;;27.92;;
34902;SDS011;21114;44.840;0.214;2023-03-05T10:07:37;37.03;;;27.10;;
34902;SDS011;21114;44.840;0.214;2023-03-05T10:10:40;46.88;;;27.27;;
34902;SDS011;21114;44.840;0.214;2023-03-05T10:13:30;37.42;;;25.08;;
34902;SDS011;21114;44.840;0.214;2023-03-05T10:33:11;37.05;;;25.02;;
34902;SDS011;21114;44.840;0.214;2023-03-05T10:36:35;37.70;;;26.00;;
34902;SDS011;21114;44.840;0.214;2023-03-05T10:42:35;43.47;;;28.52;;
34902;SDS011;21114;44.840;0.214;2023-03-05T10:45:52;38.13;;;26.52;;
34902;SDS011;21114;44.840;0.214;2023-03-05T10:49:13;38.70;;;24.13;;
34902;SDS011;21114;44.840;0.214;2023-03-05T10:52:31;36.33;;;23.60;;
34902;SDS011;21114;44.840;0.214;2023-03-05T10:55:46;34.67;;;22.17;;
34902;SDS011;21114;44.840;0.214;2023-03-05T10:59:01;35.45;;;20.52;;
34902;SDS011;21114;44.840;0.214;2023-03-05T11:01:27;37.25;;;24.52;;
34902;SDS011;21114;44.840;0.214;2023-03-05T11:04:42;41.30;;;25.73;;
34902;SDS011;21114;44.840;0.214;2023-03-05T11:10:23;36.42;;;23.15;;
34902;SDS011;21114;44.840;0.214;2023-03-05T11:13:00;33.83;;;22.30;;
34902;SDS011;21114;44.840;0.214;2023-03-05T11:16:30;37.42;;;24.27;;
34902;SDS011;21114;44.840;0.214;2023-03-05T11:19:26;32.05;;;21.73;;
34902;SDS011;21114;44.840;0.214;2023-03-05T11:22:24;34.95;;;20.40;;
34902;SDS011;21114;44.840;0.214;2023-03-05T11:25:58;34.10;;;21.15;;
34902;SDS011;21114;44.840;0.214;2023-03-05T11:29:16;30.90;;;20.40;;
34902;SDS011;21114;44.840;0.214;2023-03-05T11:32:28;29.75;;;19.05;;
34902;SDS011;21114;44.840;0.214;2023-03-05T11:35:44;27.50;;;19.38;;
34902;SDS011;21114;44.840;0.214;2023-03-05T11:41:47;27.05;;;18.05;;
34902;SDS011;21114;44.840;0.214;2023-03-05T11:45:02;28.92;;;17.90;;
34902;SDS011;21114;44.840;0.214;2023-03-05T11:48:19;23.73;;;14.82;;
34902;SDS011;21114;44.840;0.214;2023-03-05T11:51:38;24.95;;;15.90;;
34902;SDS011;21114;44.840;0.214;2023-03-05T11:57:52;22.38;;;14.73;;
34902;SDS011;21114;44.840;0.214;2023-03-05T12:01:14;24.10;;;17.70;;
34902;SDS011;21114;44.840;0.214;2023-03-05T12:04:29;19.70;;;11.77;;
34902;SDS011;21114;44.840;0.214;2023-03-05T12:07:46;20.58;;;12.32;;
34902;SDS011;21114;44.840;0.214;2023-03-05T12:11:05;21.42;;;13.75;;
34902;SDS011;21114;44.840;0.214;2023-03-05T12:17:03;21.35;;;13.43;;
34902;SDS011;21114;44.840;0.214;2023-03-05T12:23:17;24.65;;;15.82;;
34902;SDS011;21114;44.840;0.214;2023-03-05T12:32:03;26.02;;;15.15;;
34902;SDS011;21114;44.840;0.214;2023-03-05T12:35:23;20.48;;;14.30;;
34902;SDS011;21114;44.840;0.214;2023-03-05T12:38:38;23.35;;;15.00;;
34902;SDS011;21114;44.840;0.214;2023-03-05T12:46:45;17.58;;;12.88;;
34902;SDS011;21114;44.840;0.214;2023-03-05T12:49:59;21.67;;;13.95;;
34902;SDS011;21114;44.840;0.214;2023-03-05T12:52:27;20.23;;;12.77;;
34902;SDS011;21114;44.840;0.214;2023-03-05T13:03:49;19.65;;;12.93;;
34902;SDS011;21114;44.840;0.214;2023-03-05T13:07:12;20.40;;;12.35;;
34902;SDS011;21114;44.840;0.214;2023-03-05T13:10:27;18.17;;;12.38;;
34902;SDS011;21114;44.840;0.214;2023-03-05T13:13:43;15.95;;;12.43;;
34902;SDS011;21114;44.840;0.214;2023-03-05T13:16:58;15.60;;;11.38;;
34902;SDS011;21114;44.840;0.214;2023-03-05T13:28:41;20.35;;;11.45;;
34902;SDS011;21114;44.840;0.214;2023-03-05T13:31:59;15.35;;;9.98;;
34902;SDS011;21114;44.840;0.214;2023-03-05T13:35:14;19.95;;;12.50;;
34902;SDS011;21114;44.840;0.214;2023-03-05T13:37:40;13.98;;;10.30;;
34902;SDS011;21114;44.840;0.214;2023-03-05T13:41:01;15.63;;;12.18;;
34902;SDS011;21114;44.840;0.214;2023-03-05T13:44:19;16.58;;;8.60;;
34902;SDS011;21114;44.840;0.214;2023-03-05T13:47:34;11.48;;;9.10;;
34902;SDS011;21114;44.840;0.214;2023-03-05T13:50:56;12.45;;;9.52;;
34902;SDS011;21114;44.840;0.214;2023-03-05T13:54:13;14.60;;;9.43;;
34902;SDS011;21114;44.840;0.214;2023-03-05T14:03:06;11.98;;;8.55;;
34902;SDS011;21114;44.840;0.214;2023-03-05T14:06:22;14.02;;;10.43;;
34902;SDS011;21114;44.840;0.214;2023-03-05T14:15:19;12.93;;;9.00;;
34902;SDS011;21114;44.840;0.214;2023-03-05T14:18:34;11.30;;;8.80;;
34902;SDS011;21114;44.840;0.214;2023-03-05T14:21:41;12.68;;;8.38;;
34902;SDS011;21114;44.840;0.214;2023-03-05T14:24:56;16.35;;;8.80;;
34902;SDS011;21114;44.840;0.214;2023-03-05T14:27:22;11.13;;;8.27;;
34902;SDS011;21114;44.840;0.214;2023-03-05T14:29:48;15.45;;;9.88;;
34902;SDS011;21114;44.840;0.214;2023-03-05T14:32:27;10.10;;;8.20;;
34902;SDS011;21114;44.840;0.214;2023-03-05T14:35:28;11.45;;;9.00;;
34902;SDS011;21114;44.840;0.214;2023-03-05T14:37:55;14.82;;;9.32;;
34902;SDS011;21114;44.840;0.214;2023-03-05T14:46:53;13.00;;;8.70;;
34902;SDS011;21114;44.840;0.214;2023-03-05T14:49:20;12.43;;;9.07;;
34902;SDS011;21114;44.840;0.214;2023-03-05T14:51:46;12.15;;;8.93;;
34902;SDS011;21114;44.840;0.214;2023-03-05T14:54:17;11.85;;;9.55;;
34902;SDS011;21114;44.840;0.214;2023-03-05T14:57:31;10.35;;;7.47;;
34902;SDS011;21114;44.840;0.214;2023-03-05T14:59:57;14.73;;;9.25;;
34902;SDS011;21114;44.840;0.214;2023-03-05T15:02:24;11.90;;;8.80;;
34902;SDS011;21114;44.840;0.214;2023-03-05T15:05:27;10.60;;;8.15;;
34902;SDS011;21114;44.840;0.214;2023-03-05T15:07:53;9.75;;;7.47;;
34902;SDS011;21114;44.840;0.214;2023-03-05T15:10:20;10.10;;;8.02;;
34902;SDS011;21114;44.840;0.214;2023-03-05T15:13:35;11.40;;;7.32;;
34902;SDS011;21114;44.840;0.214;2023-03-05T15:16:01;10.98;;;8.73;;
34902;SDS011;21114;44.840;0.214;2023-03-05T15:18:29;12.70;;;7.10;;
34902;SDS011;21114;44.840;0.214;2023-03-05T15:20:55;13.18;;;8.75;;
34902;SDS011;21114;44.840;0.214;2023-03-05T15:23:21;9.50;;;6.97;;
34902;SDS011;21114;44.840;0.214;2023-03-05T15:25:47;12.57;;;8.43;;
34902;SDS011;21114;44.840;0.214;2023-03-05T15:28:14;13.23;;;7.80;;
34902;SDS011;21114;44.840;0.214;2023-03-05T15:30:42;14.80;;;11.23;;
34902;SDS011;21114;44.840;0.214;2023-03-05T15:34:02;11.75;;;8.30;;
34902;SDS011;21114;44.840;0.214;2023-03-05T15:36:28;13.10;;;8.52;;
34902;SDS011;21114;44.840;0.214;2023-03-05T15:38:54;12.13;;;8.15;;
34902;SDS011;21114;44.840;0.214;2023-03-05T15:41:20;11.60;;;8.75;;
34902;SDS011;21114;44.840;0.214;2023-03-05T15:43:46;10.75;;;7.55;;
34902;SDS011;21114;44.840;0.214;2023-03-05T15:46:12;8.82;;;7.82;;
34902;SDS011;21114;44.840;0.214;2023-03-05T15:48:38;9.18;;;7.15;;
34902;SDS011;21114;44.840;0.214;2023-03-05T15:51:06;10.43;;;7.15;;
34902;SDS011;21114;44.840;0.214;2023-03-05T15:53:33;11.95;;;8.18;;
34902;SDS011;21114;44.840;0.214;2023-03-05T15:55:59;12.63;;;8.30;;
34902;SDS011;21114;44.840;0.214;2023-03-05T15:58:25;13.32;;;8.85;;
34902;SDS011;21114;44.840;0.214;2023-03-05T16:00:51;11.02;;;8.85;;
34902;SDS011;21114;44.840;0.214;2023-03-05T16:03:17;12.95;;;10.35;;
34902;SDS011;21114;44.840;0.214;2023-03-05T16:05:43;12.57;;;9.05;;
34902;SDS011;21114;44.840;0.214;2023-03-05T16:08:09;11.45;;;10.20;;
34902;SDS011;21114;44.840;0.214;2023-03-05T16:10:35;11.07;;;9.10;;
34902;SDS011;21114;44.840;0.214;2023-03-05T16:13:05;13.45;;;9.48;;
34902;SDS011;21114;44.840;0.214;2023-03-05T16:16:21;12.88;;;9.32;;
34902;SDS011;21114;44.840;0.214;2023-03-05T16:18:49;12.23;;;8.48;;
34902;SDS011;21114;44.840;0.214;2023-03-05T16:21:15;12.05;;;9.18;;
34902;SDS011;21114;44.840;0.214;2023-03-05T16:23:41;13.52;;;9.52;;
34902;SDS011;21114;44.840;0.214;2023-03-05T16:26:08;10.50;;;7.50;;
34902;SDS011;21114;44.840;0.214;2023-03-05T16:28:34;13.27;;;9.13;;
34902;SDS011;21114;44.840;0.214;2023-03-05T16:31:01;11.25;;;10.10;;
34902;SDS011;21114;44.840;0.214;2023-03-05T16:33:27;12.65;;;10.57;;
34902;SDS011;21114;44.840;0.214;2023-03-05T16:36:11;13.18;;;9.52;;
34902;SDS011;21114;44.840;0.214;2023-03-05T16:39:31;12.80;;;10.50;;
34902;SDS011;21114;44.840;0.214;2023-03-05T16:42:45;12.07;;;9.00;;
34902;SDS011;21114;44.840;0.214;2023-03-05T16:45:11;13.63;;;8.60;;
34902;SDS011;21114;44.840;0.214;2023-03-05T16:47:38;11.82;;;8.98;;
34902;SDS011;21114;44.840;0.214;2023-03-05T16:50:04;14.30;;;10.55;;
34902;SDS011;21114;44.840;0.214;2023-03-05T16:53:21;12.70;;;9.55;;
34902;SDS011;21114;44.840;0.214;2023-03-05T16:55:47;13.73;;;9.98;;
34902;SDS011;21114;44.840;0.214;2023-03-05T16:58:13;11.68;;;10.13;;
34902;SDS011;21114;44.840;0.214;2023-03-05T17:00:39;14.13;;;9.75;;
34902;SDS011;21114;44.840;0.214;2023-03-05T17:03:05;15.45;;;9.52;;
34902;SDS011;21114;44.840;0.214;2023-03-05T17:05:34;13.57;;;10.30;;
34902;SDS011;21114;44.840;0.214;2023-03-05T17:08:49;12.93;;;10.52;;